sensor_id;sensor_type;location;lat;lon;timestamp;P1;durP1;ratioP1;P2;durP2;ratioP2
29500;SDS011;16450;50.288;10.966;2022-07-25T00:01:53;8.07;;;7.00;;
29500;SDS011;16450;50.288;10.966;2022-07-25T00:04:54;7.57;;;6.77;;
29500;SDS011;16450;50.288;10.966;2022-07-25T00:07:55;8.70;;;7.07;;
29500;SDS011;16450;50.288;10.966;2022-07-25T00:10:56;8.23;;;6.53;;
29500;SDS011;16450;50.288;10.966;2022-07-25T00:13:57;9.75;;;6.95;;
29500;SDS011;16450;50.288;10.966;2022-07-25T00:16:57;7.85;;;6.53;;
29500;SDS011;16450;50.288;10.966;2022-07-25T00:19:58;8.43;;;6.75;;
29500;SDS011;16450;50.288;10.966;2022-07-25T00:22:58;7.93;;;6.37;;
29500;SDS011;16450;50.288;10.966;2022-07-25T00:25:59;8.73;;;7.07;;
29500;SDS011;16450;50.288;10.966;2022-07-25T00:29:00;7.90;;;7.07;;
29500;SDS011;16450;50.288;10.966;2022-07-25T00:32:00;9.63;;;7.37;;
29500;SDS011;16450;50.288;10.966;2022-07-25T00:35:01;8.83;;;7.17;;
29500;SDS011;16450;50.288;10.966;2022-07-25T00:38:01;9.17;;;7.63;;
29500;SDS011;16450;50.288;10.966;2022-07-25T00:41:02;8.80;;;7.27;;
29500;SDS011;16450;50.288;10.966;2022-07-25T00:44:03;9.97;;;7.87;;
29500;SDS011;16450;50.288;10.966;2022-07-25T00:47:04;8.60;;;7.10;;
29500;SDS011;16450;50.288;10.966;2022-07-25T00:50:05;9.97;;;7.37;;
29500;SDS011;16450;50.288;10.966;2022-07-25T00:53:06;11.00;;;7.47;;
29500;SDS011;16450;50.288;10.966;2022-07-25T00:56:07;9.00;;;7.37;;
29500;SDS011;16450;50.288;10.966;2022-07-25T00:59:08;10.00;;;7.47;;
29500;SDS011;16450;50.288;10.966;2022-07-25T01:02:09;9.13;;;7.47;;
29500;SDS011;16450;50.288;10.966;2022-07-25T01:05:10;8.83;;;7.20;;
29500;SDS011;16450;50.288;10.966;2022-07-25T01:08:11;11.63;;;7.87;;
29500;SDS011;16450;50.288;10.966;2022-07-25T01:11:12;10.63;;;6.83;;
29500;SDS011;16450;50.288;10.966;2022-07-25T01:14:12;8.80;;;7.60;;
29500;SDS011;16450;50.288;10.966;2022-07-25T01:17:13;9.43;;;7.23;;
29500;SDS011;16450;50.288;10.966;2022-07-25T01:20:15;10.23;;;7.50;;
29500;SDS011;16450;50.288;10.966;2022-07-25T01:23:17;9.17;;;7.17;;
29500;SDS011;16450;50.288;10.966;2022-07-25T01:26:18;10.30;;;7.17;;
29500;SDS011;16450;50.288;10.966;2022-07-25T01:29:18;9.20;;;7.17;;
29500;SDS011;16450;50.288;10.966;2022-07-25T01:32:19;8.90;;;7.07;;
29500;SDS011;16450;50.288;10.966;2022-07-25T01:35:19;8.40;;;7.10;;
29500;SDS011;16450;50.288;10.966;2022-07-25T01:38:20;9.63;;;7.67;;
29500;SDS011;16450;50.288;10.966;2022-07-25T01:41:21;9.87;;;7.30;;
29500;SDS011;16450;50.288;10.966;2022-07-25T01:44:21;9.37;;;7.80;;
29500;SDS011;16450;50.288;10.966;2022-07-25T01:47:22;8.40;;;7.23;;
29500;SDS011;16450;50.288;10.966;2022-07-25T01:50:23;8.07;;;7.27;;
29500;SDS011;16450;50.288;10.966;2022-07-25T01:53:23;9.77;;;8.07;;
29500;SDS011;16450;50.288;10.966;2022-07-25T01:56:24;10.00;;;7.90;;
29500;SDS011;16450;50.288;10.966;2022-07-25T01:59:26;9.00;;;7.10;;
29500;SDS011;16450;50.288;10.966;2022-07-25T02:02:26;9.43;;;7.40;;
29500;SDS011;16450;50.288;10.966;2022-07-25T02:05:27;9.67;;;7.40;;
29500;SDS011;16450;50.288;10.966;2022-07-25T02:08:28;8.70;;;7.07;;
29500;SDS011;16450;50.288;10.966;2022-07-25T02:11:29;10.60;;;7.57;;
29500;SDS011;16450;50.288;10.966;2022-07-25T02:14:30;9.43;;;7.17;;
29500;SDS011;16450;50.288;10.966;2022-07-25T02:17:31;10.43;;;7.93;;
29500;SDS011;16450;50.288;10.966;2022-07-25T02:20:31;9.03;;;7.47;;
29500;SDS011;16450;50.288;10.966;2022-07-25T02:23:32;8.73;;;7.13;;
29500;SDS011;16450;50.288;10.966;2022-07-25T02:26:33;10.80;;;7.50;;
29500;SDS011;16450;50.288;10.966;2022-07-25T02:29:33;10.43;;;7.50;;
29500;SDS011;16450;50.288;10.966;2022-07-25T02:32:34;9.67;;;7.30;;
29500;SDS011;16450;50.288;10.966;2022-07-25T02:35:35;11.97;;;8.03;;
29500;SDS011;16450;50.288;10.966;2022-07-25T02:38:36;10.07;;;7.63;;
29500;SDS011;16450;50.288;10.966;2022-07-25T02:41:37;8.60;;;7.53;;
29500;SDS011;16450;50.288;10.966;2022-07-25T02:44:37;10.50;;;7.50;;
29500;SDS011;16450;50.288;10.966;2022-07-25T02:47:38;10.23;;;7.83;;
29500;SDS011;16450;50.288;10.966;2022-07-25T02:50:39;8.97;;;7.70;;
29500;SDS011;16450;50.288;10.966;2022-07-25T02:53:39;9.97;;;7.87;;
29500;SDS011;16450;50.288;10.966;2022-07-25T02:56:40;10.53;;;7.77;;
29500;SDS011;16450;50.288;10.966;2022-07-25T02:59:41;9.23;;;7.67;;
29500;SDS011;16450;50.288;10.966;2022-07-25T03:02:41;9.63;;;7.27;;
29500;SDS011;16450;50.288;10.966;2022-07-25T03:05:42;10.20;;;7.77;;
29500;SDS011;16450;50.288;10.966;2022-07-25T03:08:43;9.47;;;7.90;;
29500;SDS011;16450;50.288;10.966;2022-07-25T03:11:44;9.30;;;7.80;;
29500;SDS011;16450;50.288;10.966;2022-07-25T03:14:44;9.27;;;7.37;;
29500;SDS011;16450;50.288;10.966;2022-07-25T03:17:45;12.33;;;8.40;;
29500;SDS011;16450;50.288;10.966;2022-07-25T03:20:46;8.87;;;7.77;;
29500;SDS011;16450;50.288;10.966;2022-07-25T03:23:47;9.23;;;7.20;;
29500;SDS011;16450;50.288;10.966;2022-07-25T03:26:47;9.80;;;7.93;;
29500;SDS011;16450;50.288;10.966;2022-07-25T03:29:48;11.27;;;7.80;;
29500;SDS011;16450;50.288;10.966;2022-07-25T03:32:49;9.80;;;8.23;;
29500;SDS011;16450;50.288;10.966;2022-07-25T03:35:50;11.07;;;8.00;;
29500;SDS011;16450;50.288;10.966;2022-07-25T03:38:50;9.60;;;7.47;;
29500;SDS011;16450;50.288;10.966;2022-07-25T03:41:51;10.57;;;7.73;;
29500;SDS011;16450;50.288;10.966;2022-07-25T03:44:51;8.97;;;7.80;;
29500;SDS011;16450;50.288;10.966;2022-07-25T03:47:52;11.30;;;7.57;;
29500;SDS011;16450;50.288;10.966;2022-07-25T03:50:54;9.23;;;7.73;;
29500;SDS011;16450;50.288;10.966;2022-07-25T03:53:55;9.77;;;8.00;;
29500;SDS011;16450;50.288;10.966;2022-07-25T03:57:02;10.07;;;7.60;;
29500;SDS011;16450;50.288;10.966;2022-07-25T04:00:05;11.17;;;8.17;;
29500;SDS011;16450;50.288;10.966;2022-07-25T04:03:08;10.10;;;7.77;;
29500;SDS011;16450;50.288;10.966;2022-07-25T04:06:08;9.87;;;8.07;;
29500;SDS011;16450;50.288;10.966;2022-07-25T04:09:09;10.57;;;7.50;;
29500;SDS011;16450;50.288;10.966;2022-07-25T04:12:11;10.50;;;8.40;;
29500;SDS011;16450;50.288;10.966;2022-07-25T04:15:11;10.37;;;8.13;;
29500;SDS011;16450;50.288;10.966;2022-07-25T04:18:12;11.40;;;8.07;;
29500;SDS011;16450;50.288;10.966;2022-07-25T04:21:13;12.03;;;7.80;;
29500;SDS011;16450;50.288;10.966;2022-07-25T04:24:14;10.27;;;7.90;;
29500;SDS011;16450;50.288;10.966;2022-07-25T04:27:14;11.03;;;8.80;;
29500;SDS011;16450;50.288;10.966;2022-07-25T04:30:15;11.67;;;8.43;;
29500;SDS011;16450;50.288;10.966;2022-07-25T04:33:16;10.60;;;8.40;;
29500;SDS011;16450;50.288;10.966;2022-07-25T04:36:17;10.80;;;8.47;;
29500;SDS011;16450;50.288;10.966;2022-07-25T04:39:18;9.30;;;7.80;;
29500;SDS011;16450;50.288;10.966;2022-07-25T04:42:18;9.17;;;7.47;;
29500;SDS011;16450;50.288;10.966;2022-07-25T04:45:19;9.73;;;7.27;;
29500;SDS011;16450;50.288;10.966;2022-07-25T04:48:20;9.97;;;7.93;;
29500;SDS011;16450;50.288;10.966;2022-07-25T04:51:20;11.60;;;7.93;;
29500;SDS011;16450;50.288;10.966;2022-07-25T04:54:21;9.53;;;7.90;;
29500;SDS011;16450;50.288;10.966;2022-07-25T04:57:21;9.57;;;7.67;;
29500;SDS011;16450;50.288;10.966;2022-07-25T05:00:22;9.37;;;7.80;;
29500;SDS011;16450;50.288;10.966;2022-07-25T05:03:23;9.93;;;8.30;;
29500;SDS011;16450;50.288;10.966;2022-07-25T05:06:24;10.23;;;7.70;;
29500;SDS011;16450;50.288;10.966;2022-07-25T05:09:25;11.07;;;8.00;;
29500;SDS011;16450;50.288;10.966;2022-07-25T05:12:26;10.00;;;8.43;;
29500;SDS011;16450;50.288;10.966;2022-07-25T05:15:27;9.77;;;7.77;;
29500;SDS011;16450;50.288;10.966;2022-07-25T05:18:27;9.90;;;7.80;;
29500;SDS011;16450;50.288;10.966;2022-07-25T05:21:28;10.27;;;8.33;;
29500;SDS011;16450;50.288;10.966;2022-07-25T05:24:33;9.10;;;7.87;;
29500;SDS011;16450;50.288;10.966;2022-07-25T05:27:34;9.23;;;7.30;;
29500;SDS011;16450;50.288;10.966;2022-07-25T05:30:35;11.10;;;8.10;;
29500;SDS011;16450;50.288;10.966;2022-07-25T05:33:35;8.55;;;7.32;;
29500;SDS011;16450;50.288;10.966;2022-07-25T05:36:36;9.20;;;8.07;;
29500;SDS011;16450;50.288;10.966;2022-07-25T05:39:37;8.77;;;7.40;;
29500;SDS011;16450;50.288;10.966;2022-07-25T05:42:39;9.88;;;7.65;;
29500;SDS011;16450;50.288;10.966;2022-07-25T05:45:39;8.20;;;7.18;;
29500;SDS011;16450;50.288;10.966;2022-07-25T05:48:40;8.80;;;7.90;;
29500;SDS011;16450;50.288;10.966;2022-07-25T05:51:41;9.63;;;7.50;;
29500;SDS011;16450;50.288;10.966;2022-07-25T05:54:42;10.18;;;8.20;;
29500;SDS011;16450;50.288;10.966;2022-07-25T05:57:43;7.88;;;7.07;;
29500;SDS011;16450;50.288;10.966;2022-07-25T06:00:43;10.48;;;7.57;;
29500;SDS011;16450;50.288;10.966;2022-07-25T06:03:44;8.40;;;7.07;;
29500;SDS011;16450;50.288;10.966;2022-07-25T06:06:44;9.20;;;7.45;;
29500;SDS011;16450;50.288;10.966;2022-07-25T06:09:50;9.80;;;7.75;;
29500;SDS011;16450;50.288;10.966;2022-07-25T06:12:50;8.30;;;7.30;;
29500;SDS011;16450;50.288;10.966;2022-07-25T06:15:51;7.65;;;6.85;;
29500;SDS011;16450;50.288;10.966;2022-07-25T06:18:53;9.65;;;7.40;;
29500;SDS011;16450;50.288;10.966;2022-07-25T06:21:54;7.60;;;6.75;;
29500;SDS011;16450;50.288;10.966;2022-07-25T06:24:54;10.52;;;7.05;;
29500;SDS011;16450;50.288;10.966;2022-07-25T06:27:55;9.63;;;7.25;;
29500;SDS011;16450;50.288;10.966;2022-07-25T06:30:56;9.48;;;6.80;;
29500;SDS011;16450;50.288;10.966;2022-07-25T06:33:56;8.52;;;7.38;;
29500;SDS011;16450;50.288;10.966;2022-07-25T06:36:57;7.68;;;6.75;;
29500;SDS011;16450;50.288;10.966;2022-07-25T06:39:59;9.73;;;7.35;;
29500;SDS011;16450;50.288;10.966;2022-07-25T06:42:59;7.80;;;7.00;;
29500;SDS011;16450;50.288;10.966;2022-07-25T06:46:00;9.07;;;6.70;;
29500;SDS011;16450;50.288;10.966;2022-07-25T06:49:01;7.43;;;6.68;;
29500;SDS011;16450;50.288;10.966;2022-07-25T06:52:02;9.85;;;6.68;;
29500;SDS011;16450;50.288;10.966;2022-07-25T06:55:04;7.32;;;6.60;;
29500;SDS011;16450;50.288;10.966;2022-07-25T06:58:05;8.65;;;6.95;;
29500;SDS011;16450;50.288;10.966;2022-07-25T07:01:06;7.90;;;6.78;;
29500;SDS011;16450;50.288;10.966;2022-07-25T07:04:06;7.97;;;7.18;;
29500;SDS011;16450;50.288;10.966;2022-07-25T07:07:07;7.50;;;6.68;;
29500;SDS011;16450;50.288;10.966;2022-07-25T07:10:08;8.25;;;6.68;;
29500;SDS011;16450;50.288;10.966;2022-07-25T07:13:09;7.85;;;6.60;;
29500;SDS011;16450;50.288;10.966;2022-07-25T07:16:12;6.93;;;6.00;;
29500;SDS011;16450;50.288;10.966;2022-07-25T07:19:12;8.48;;;6.22;;
29500;SDS011;16450;50.288;10.966;2022-07-25T07:22:13;7.35;;;6.22;;
29500;SDS011;16450;50.288;10.966;2022-07-25T07:25:14;7.82;;;6.32;;
29500;SDS011;16450;50.288;10.966;2022-07-25T07:28:16;6.47;;;5.78;;
29500;SDS011;16450;50.288;10.966;2022-07-25T07:31:17;7.90;;;6.50;;
29500;SDS011;16450;50.288;10.966;2022-07-25T07:34:18;7.70;;;6.35;;
29500;SDS011;16450;50.288;10.966;2022-07-25T07:37:19;7.28;;;5.82;;
29500;SDS011;16450;50.288;10.966;2022-07-25T07:40:20;7.63;;;6.20;;
29500;SDS011;16450;50.288;10.966;2022-07-25T07:43:21;9.07;;;6.95;;
29500;SDS011;16450;50.288;10.966;2022-07-25T07:46:22;6.85;;;6.25;;
29500;SDS011;16450;50.288;10.966;2022-07-25T07:49:22;7.45;;;6.40;;
29500;SDS011;16450;50.288;10.966;2022-07-25T07:52:23;6.70;;;5.97;;
29500;SDS011;16450;50.288;10.966;2022-07-25T07:55:24;6.93;;;5.97;;
29500;SDS011;16450;50.288;10.966;2022-07-25T07:58:44;6.78;;;6.15;;
29500;SDS011;16450;50.288;10.966;2022-07-25T08:01:45;8.15;;;6.07;;
29500;SDS011;16450;50.288;10.966;2022-07-25T08:04:45;7.85;;;6.18;;
29500;SDS011;16450;50.288;10.966;2022-07-25T08:07:46;8.20;;;5.72;;
29500;SDS011;16450;50.288;10.966;2022-07-25T08:10:47;6.78;;;6.10;;
29500;SDS011;16450;50.288;10.966;2022-07-25T08:13:48;6.22;;;5.63;;
29500;SDS011;16450;50.288;10.966;2022-07-25T08:16:49;6.35;;;5.40;;
29500;SDS011;16450;50.288;10.966;2022-07-25T08:19:51;5.82;;;5.25;;
29500;SDS011;16450;50.288;10.966;2022-07-25T08:22:52;8.30;;;5.55;;
29500;SDS011;16450;50.288;10.966;2022-07-25T08:25:53;10.00;;;5.72;;
29500;SDS011;16450;50.288;10.966;2022-07-25T08:28:53;6.78;;;5.65;;
29500;SDS011;16450;50.288;10.966;2022-07-25T08:31:54;7.15;;;5.97;;
29500;SDS011;16450;50.288;10.966;2022-07-25T08:34:55;6.03;;;5.07;;
29500;SDS011;16450;50.288;10.966;2022-07-25T08:37:56;7.25;;;5.57;;
29500;SDS011;16450;50.288;10.966;2022-07-25T08:40:58;7.13;;;5.30;;
29500;SDS011;16450;50.288;10.966;2022-07-25T08:43:59;7.18;;;5.45;;
29500;SDS011;16450;50.288;10.966;2022-07-25T08:47:01;6.82;;;5.40;;
29500;SDS011;16450;50.288;10.966;2022-07-25T08:50:03;7.15;;;5.45;;
29500;SDS011;16450;50.288;10.966;2022-07-25T08:53:05;5.88;;;4.78;;
29500;SDS011;16450;50.288;10.966;2022-07-25T08:56:07;6.70;;;5.80;;
29500;SDS011;16450;50.288;10.966;2022-07-25T08:59:08;5.72;;;5.07;;
29500;SDS011;16450;50.288;10.966;2022-07-25T09:02:12;6.03;;;5.20;;
29500;SDS011;16450;50.288;10.966;2022-07-25T09:05:14;6.53;;;5.18;;
29500;SDS011;16450;50.288;10.966;2022-07-25T09:08:16;6.38;;;5.10;;
29500;SDS011;16450;50.288;10.966;2022-07-25T09:11:36;5.63;;;5.03;;
29500;SDS011;16450;50.288;10.966;2022-07-25T09:14:43;5.53;;;4.85;;
29500;SDS011;16450;50.288;10.966;2022-07-25T09:17:48;6.03;;;5.15;;
29500;SDS011;16450;50.288;10.966;2022-07-25T09:20:51;9.65;;;4.88;;
29500;SDS011;16450;50.288;10.966;2022-07-25T09:23:53;7.05;;;5.13;;
29500;SDS011;16450;50.288;10.966;2022-07-25T09:26:55;5.85;;;5.03;;
29500;SDS011;16450;50.288;10.966;2022-07-25T09:29:57;6.78;;;5.05;;
29500;SDS011;16450;50.288;10.966;2022-07-25T09:32:58;5.93;;;4.90;;
29500;SDS011;16450;50.288;10.966;2022-07-25T09:36:08;6.55;;;5.75;;
29500;SDS011;16450;50.288;10.966;2022-07-25T09:39:10;6.05;;;4.80;;
29500;SDS011;16450;50.288;10.966;2022-07-25T09:42:18;7.57;;;5.03;;
29500;SDS011;16450;50.288;10.966;2022-07-25T09:45:35;6.03;;;4.88;;
29500;SDS011;16450;50.288;10.966;2022-07-25T09:48:36;5.80;;;5.22;;
29500;SDS011;16450;50.288;10.966;2022-07-25T09:51:39;5.80;;;5.07;;
29500;SDS011;16450;50.288;10.966;2022-07-25T09:54:40;5.90;;;5.28;;
29500;SDS011;16450;50.288;10.966;2022-07-25T09:57:41;7.65;;;5.30;;
29500;SDS011;16450;50.288;10.966;2022-07-25T10:00:44;5.75;;;5.13;;
29500;SDS011;16450;50.288;10.966;2022-07-25T10:03:52;7.05;;;5.50;;
29500;SDS011;16450;50.288;10.966;2022-07-25T10:07:14;6.38;;;5.35;;
29500;SDS011;16450;50.288;10.966;2022-07-25T10:10:20;6.40;;;5.45;;
29500;SDS011;16450;50.288;10.966;2022-07-25T10:13:28;6.68;;;5.15;;
29500;SDS011;16450;50.288;10.966;2022-07-25T10:16:32;7.57;;;5.53;;
29500;SDS011;16450;50.288;10.966;2022-07-25T10:19:43;9.90;;;5.50;;
29500;SDS011;16450;50.288;10.966;2022-07-25T10:22:45;6.55;;;5.82;;
29500;SDS011;16450;50.288;10.966;2022-07-25T10:25:46;7.03;;;5.82;;
29500;SDS011;16450;50.288;10.966;2022-07-25T10:28:58;6.28;;;5.60;;
29500;SDS011;16450;50.288;10.966;2022-07-25T10:32:10;7.60;;;6.10;;
29500;SDS011;16450;50.288;10.966;2022-07-25T10:35:11;6.03;;;5.47;;
29500;SDS011;16450;50.288;10.966;2022-07-25T10:38:22;7.82;;;6.00;;
29500;SDS011;16450;50.288;10.966;2022-07-25T10:41:24;7.20;;;5.45;;
29500;SDS011;16450;50.288;10.966;2022-07-25T10:44:26;6.78;;;5.85;;
29500;SDS011;16450;50.288;10.966;2022-07-25T10:47:37;8.05;;;5.55;;
29500;SDS011;16450;50.288;10.966;2022-07-25T10:50:45;7.00;;;5.50;;
29500;SDS011;16450;50.288;10.966;2022-07-25T10:53:47;6.63;;;5.90;;
29500;SDS011;16450;50.288;10.966;2022-07-25T11:00:03;6.20;;;5.60;;
29500;SDS011;16450;50.288;10.966;2022-07-25T11:03:06;6.85;;;5.40;;
29500;SDS011;16450;50.288;10.966;2022-07-25T11:06:06;6.65;;;5.80;;
29500;SDS011;16450;50.288;10.966;2022-07-25T11:09:14;6.50;;;5.80;;
29500;SDS011;16450;50.288;10.966;2022-07-25T11:12:26;7.53;;;5.70;;
29500;SDS011;16450;50.288;10.966;2022-07-25T11:15:26;6.45;;;5.72;;
29500;SDS011;16450;50.288;10.966;2022-07-25T11:18:35;6.90;;;6.15;;
29500;SDS011;16450;50.288;10.966;2022-07-25T11:21:44;7.40;;;5.88;;
29500;SDS011;16450;50.288;10.966;2022-07-25T11:24:50;7.32;;;5.90;;
29500;SDS011;16450;50.288;10.966;2022-07-25T11:27:54;7.40;;;6.15;;
29500;SDS011;16450;50.288;10.966;2022-07-25T11:31:05;6.57;;;5.88;;
29500;SDS011;16450;50.288;10.966;2022-07-25T11:34:07;6.80;;;6.10;;
29500;SDS011;16450;50.288;10.966;2022-07-25T11:37:09;6.68;;;5.93;;
29500;SDS011;16450;50.288;10.966;2022-07-25T11:40:11;7.13;;;5.97;;
29500;SDS011;16450;50.288;10.966;2022-07-25T11:43:22;7.38;;;5.88;;
29500;SDS011;16450;50.288;10.966;2022-07-25T11:46:23;6.65;;;5.80;;
29500;SDS011;16450;50.288;10.966;2022-07-25T11:49:24;6.68;;;5.93;;
29500;SDS011;16450;50.288;10.966;2022-07-25T11:55:30;8.38;;;6.53;;
29500;SDS011;16450;50.288;10.966;2022-07-25T11:58:32;7.10;;;6.15;;
29500;SDS011;16450;50.288;10.966;2022-07-25T12:01:33;7.40;;;5.90;;
29500;SDS011;16450;50.288;10.966;2022-07-25T12:04:36;6.97;;;6.13;;
29500;SDS011;16450;50.288;10.966;2022-07-25T12:10:37;10.65;;;6.05;;
29500;SDS011;16450;50.288;10.966;2022-07-25T12:13:39;8.70;;;6.25;;
29500;SDS011;16450;50.288;10.966;2022-07-25T12:16:39;8.13;;;6.30;;
29500;SDS011;16450;50.288;10.966;2022-07-25T12:19:43;7.05;;;5.93;;
29500;SDS011;16450;50.288;10.966;2022-07-25T12:22:46;6.88;;;6.13;;
29500;SDS011;16450;50.288;10.966;2022-07-25T12:25:48;9.07;;;6.95;;
29500;SDS011;16450;50.288;10.966;2022-07-25T12:28:49;10.50;;;6.20;;
29500;SDS011;16450;50.288;10.966;2022-07-25T12:31:49;6.53;;;5.93;;
29500;SDS011;16450;50.288;10.966;2022-07-25T12:34:50;7.40;;;5.80;;
29500;SDS011;16450;50.288;10.966;2022-07-25T12:37:51;7.05;;;5.80;;
29500;SDS011;16450;50.288;10.966;2022-07-25T12:40:52;6.65;;;6.05;;
29500;SDS011;16450;50.288;10.966;2022-07-25T12:43:53;6.93;;;6.22;;
29500;SDS011;16450;50.288;10.966;2022-07-25T12:46:56;9.70;;;5.85;;
29500;SDS011;16450;50.288;10.966;2022-07-25T12:49:57;6.57;;;5.80;;
29500;SDS011;16450;50.288;10.966;2022-07-25T12:52:58;7.25;;;6.30;;
29500;SDS011;16450;50.288;10.966;2022-07-25T12:55:59;8.20;;;6.03;;
29500;SDS011;16450;50.288;10.966;2022-07-25T12:59:00;5.75;;;5.20;;
29500;SDS011;16450;50.288;10.966;2022-07-25T13:02:01;6.47;;;5.40;;
29500;SDS011;16450;50.288;10.966;2022-07-25T13:05:03;5.90;;;5.15;;
29500;SDS011;16450;50.288;10.966;2022-07-25T13:08:04;5.50;;;4.43;;
29500;SDS011;16450;50.288;10.966;2022-07-25T13:11:06;5.20;;;4.53;;
29500;SDS011;16450;50.288;10.966;2022-07-25T13:14:07;5.18;;;4.22;;
29500;SDS011;16450;50.288;10.966;2022-07-25T13:17:07;5.95;;;4.40;;
29500;SDS011;16450;50.288;10.966;2022-07-25T13:20:08;6.50;;;4.35;;
29500;SDS011;16450;50.288;10.966;2022-07-25T13:23:09;6.55;;;4.70;;
29500;SDS011;16450;50.288;10.966;2022-07-25T13:26:10;5.45;;;4.32;;
29500;SDS011;16450;50.288;10.966;2022-07-25T13:29:11;4.68;;;4.18;;
29500;SDS011;16450;50.288;10.966;2022-07-25T13:32:15;5.88;;;4.35;;
29500;SDS011;16450;50.288;10.966;2022-07-25T13:35:15;4.43;;;3.95;;
29500;SDS011;16450;50.288;10.966;2022-07-25T13:38:16;5.20;;;4.55;;
29500;SDS011;16450;50.288;10.966;2022-07-25T13:41:16;5.90;;;4.30;;
29500;SDS011;16450;50.288;10.966;2022-07-25T13:44:17;5.28;;;4.45;;
29500;SDS011;16450;50.288;10.966;2022-07-25T13:47:18;10.38;;;3.72;;
29500;SDS011;16450;50.288;10.966;2022-07-25T13:50:18;5.80;;;4.35;;
29500;SDS011;16450;50.288;10.966;2022-07-25T13:53:19;5.55;;;4.32;;
29500;SDS011;16450;50.288;10.966;2022-07-25T13:56:20;5.43;;;4.10;;
29500;SDS011;16450;50.288;10.966;2022-07-25T13:59:21;4.47;;;4.05;;
29500;SDS011;16450;50.288;10.966;2022-07-25T14:02:21;5.70;;;4.22;;
29500;SDS011;16450;50.288;10.966;2022-07-25T14:05:22;5.18;;;4.63;;
29500;SDS011;16450;50.288;10.966;2022-07-25T14:08:23;5.22;;;4.43;;
29500;SDS011;16450;50.288;10.966;2022-07-25T14:11:25;5.60;;;4.57;;
29500;SDS011;16450;50.288;10.966;2022-07-25T14:14:25;7.15;;;4.50;;
29500;SDS011;16450;50.288;10.966;2022-07-25T14:17:26;5.50;;;4.53;;
29500;SDS011;16450;50.288;10.966;2022-07-25T14:20:27;4.80;;;4.30;;
29500;SDS011;16450;50.288;10.966;2022-07-25T14:23:28;8.02;;;4.40;;
29500;SDS011;16450;50.288;10.966;2022-07-25T14:26:29;5.28;;;4.35;;
29500;SDS011;16450;50.288;10.966;2022-07-25T14:29:30;8.07;;;5.00;;
29500;SDS011;16450;50.288;10.966;2022-07-25T14:32:31;6.28;;;4.78;;
29500;SDS011;16450;50.288;10.966;2022-07-25T14:35:32;5.85;;;5.10;;
29500;SDS011;16450;50.288;10.966;2022-07-25T14:38:34;5.15;;;4.45;;
29500;SDS011;16450;50.288;10.966;2022-07-25T14:41:34;7.22;;;4.68;;
29500;SDS011;16450;50.288;10.966;2022-07-25T14:44:35;5.25;;;4.75;;
29500;SDS011;16450;50.288;10.966;2022-07-25T14:47:37;6.55;;;4.90;;
29500;SDS011;16450;50.288;10.966;2022-07-25T14:50:39;5.05;;;4.32;;
29500;SDS011;16450;50.288;10.966;2022-07-25T14:53:39;4.78;;;4.32;;
29500;SDS011;16450;50.288;10.966;2022-07-25T14:56:42;5.53;;;4.53;;
29500;SDS011;16450;50.288;10.966;2022-07-25T14:59:43;4.70;;;4.20;;
29500;SDS011;16450;50.288;10.966;2022-07-25T15:02:43;5.47;;;4.53;;
29500;SDS011;16450;50.288;10.966;2022-07-25T15:05:44;6.22;;;4.53;;
29500;SDS011;16450;50.288;10.966;2022-07-25T15:08:45;5.03;;;4.05;;
29500;SDS011;16450;50.288;10.966;2022-07-25T15:11:45;5.85;;;4.63;;
29500;SDS011;16450;50.288;10.966;2022-07-25T15:14:47;5.25;;;4.40;;
29500;SDS011;16450;50.288;10.966;2022-07-25T15:17:47;5.22;;;4.45;;
29500;SDS011;16450;50.288;10.966;2022-07-25T15:20:48;6.45;;;4.55;;
29500;SDS011;16450;50.288;10.966;2022-07-25T15:23:50;5.68;;;4.38;;
29500;SDS011;16450;50.288;10.966;2022-07-25T15:26:52;8.60;;;5.07;;
29500;SDS011;16450;50.288;10.966;2022-07-25T15:29:53;6.25;;;4.35;;
29500;SDS011;16450;50.288;10.966;2022-07-25T15:32:54;5.28;;;4.20;;
29500;SDS011;16450;50.288;10.966;2022-07-25T15:35:54;6.78;;;4.32;;
29500;SDS011;16450;50.288;10.966;2022-07-25T15:38:55;6.38;;;4.47;;
29500;SDS011;16450;50.288;10.966;2022-07-25T15:41:56;5.60;;;4.82;;
29500;SDS011;16450;50.288;10.966;2022-07-25T15:44:57;5.57;;;4.60;;
29500;SDS011;16450;50.288;10.966;2022-07-25T15:47:58;4.78;;;4.25;;
29500;SDS011;16450;50.288;10.966;2022-07-25T15:50:59;6.25;;;4.25;;
29500;SDS011;16450;50.288;10.966;2022-07-25T15:53:59;4.90;;;4.40;;
29500;SDS011;16450;50.288;10.966;2022-07-25T15:57:00;4.25;;;3.80;;
29500;SDS011;16450;50.288;10.966;2022-07-25T16:00:03;7.30;;;4.00;;
29500;SDS011;16450;50.288;10.966;2022-07-25T16:03:05;5.32;;;4.65;;
29500;SDS011;16450;50.288;10.966;2022-07-25T16:06:06;6.20;;;4.47;;
29500;SDS011;16450;50.288;10.966;2022-07-25T16:09:07;5.45;;;4.25;;
29500;SDS011;16450;50.288;10.966;2022-07-25T16:12:11;4.50;;;4.10;;
29500;SDS011;16450;50.288;10.966;2022-07-25T16:15:11;8.02;;;4.60;;
29500;SDS011;16450;50.288;10.966;2022-07-25T16:18:12;5.43;;;4.47;;
29500;SDS011;16450;50.288;10.966;2022-07-25T16:21:13;5.03;;;4.53;;
29500;SDS011;16450;50.288;10.966;2022-07-25T16:24:13;5.25;;;4.45;;
29500;SDS011;16450;50.288;10.966;2022-07-25T16:27:14;5.28;;;4.78;;
29500;SDS011;16450;50.288;10.966;2022-07-25T16:30:15;6.40;;;4.68;;
29500;SDS011;16450;50.288;10.966;2022-07-25T16:33:15;5.57;;;4.82;;
29500;SDS011;16450;50.288;10.966;2022-07-25T16:36:17;5.20;;;4.50;;
29500;SDS011;16450;50.288;10.966;2022-07-25T16:39:18;5.28;;;4.13;;
29500;SDS011;16450;50.288;10.966;2022-07-25T16:42:20;5.95;;;5.03;;
29500;SDS011;16450;50.288;10.966;2022-07-25T16:45:21;8.50;;;4.93;;
29500;SDS011;16450;50.288;10.966;2022-07-25T16:48:21;6.30;;;4.90;;
29500;SDS011;16450;50.288;10.966;2022-07-25T16:51:23;6.75;;;5.15;;
29500;SDS011;16450;50.288;10.966;2022-07-25T16:54:24;6.80;;;4.70;;
29500;SDS011;16450;50.288;10.966;2022-07-25T16:57:25;6.60;;;4.88;;
29500;SDS011;16450;50.288;10.966;2022-07-25T17:00:26;7.00;;;4.78;;
29500;SDS011;16450;50.288;10.966;2022-07-25T17:03:26;7.30;;;4.70;;
29500;SDS011;16450;50.288;10.966;2022-07-25T17:06:27;6.68;;;5.30;;
29500;SDS011;16450;50.288;10.966;2022-07-25T17:09:27;6.40;;;5.30;;
29500;SDS011;16450;50.288;10.966;2022-07-25T17:12:28;6.97;;;5.22;;
29500;SDS011;16450;50.288;10.966;2022-07-25T17:15:29;8.95;;;5.20;;
29500;SDS011;16450;50.288;10.966;2022-07-25T17:18:30;7.47;;;5.10;;
29500;SDS011;16450;50.288;10.966;2022-07-25T17:21:30;5.55;;;5.05;;
29500;SDS011;16450;50.288;10.966;2022-07-25T17:24:31;7.10;;;5.30;;
29500;SDS011;16450;50.288;10.966;2022-07-25T17:27:32;6.68;;;5.30;;
29500;SDS011;16450;50.288;10.966;2022-07-25T17:30:33;7.25;;;5.30;;
29500;SDS011;16450;50.288;10.966;2022-07-25T17:33:33;6.18;;;5.05;;
29500;SDS011;16450;50.288;10.966;2022-07-25T17:36:34;6.03;;;5.30;;
29500;SDS011;16450;50.288;10.966;2022-07-25T17:39:35;6.22;;;5.28;;
29500;SDS011;16450;50.288;10.966;2022-07-25T17:42:36;5.80;;;5.20;;
29500;SDS011;16450;50.288;10.966;2022-07-25T17:45:38;9.90;;;5.45;;
29500;SDS011;16450;50.288;10.966;2022-07-25T17:48:39;6.18;;;5.22;;
29500;SDS011;16450;50.288;10.966;2022-07-25T17:51:40;7.60;;;5.15;;
29500;SDS011;16450;50.288;10.966;2022-07-25T17:54:41;6.03;;;5.40;;
29500;SDS011;16450;50.288;10.966;2022-07-25T17:57:42;7.65;;;5.47;;
29500;SDS011;16450;50.288;10.966;2022-07-25T18:00:42;6.38;;;5.47;;
29500;SDS011;16450;50.288;10.966;2022-07-25T18:03:43;10.20;;;5.95;;
29500;SDS011;16450;50.288;10.966;2022-07-25T18:06:46;5.80;;;5.20;;